ADDS METAR Data INFO
IDs: Format: Raw Decoded Include TAF

Data at: 0546 UTC 22 Nov 2017

KINK 220453Z AUTO 36007KT 10SM CLR 08/M02 A3033 RMK AO2 SLP245 T00831022
KINK 220353Z AUTO 03006KT 10SM CLR 09/M02 A3031 RMK AO2 SLP239 T00941022
KINK 220253Z AUTO 03007KT 10SM CLR 12/M03 A3027 RMK AO2 SLP232 T01221033 53040
KINK 220153Z AUTO 03006KT 10SM CLR 11/M04 A3022 RMK AO2 SLP227 T01111044
KINK 220053Z AUTO 05005KT 10SM CLR 15/M05 A3018 RMK AO2 SLP209 T01501050
KINK 212353Z AUTO 06010KT 10SM CLR 19/M06 A3014 RMK AO2 SLP190 T01941061 10267 20194 51029
KINK 212253Z AUTO 06016G25KT 10SM CLR 22/M07 A3011 RMK AO2 PK WND 06027/2219 SLP176 T02221067
KINK 212153Z AUTO 05018G29KT 10SM SCT042 23/M09 A3009 RMK AO2 PK WND 04029/2146 SLP167 T02331089
KINK 212053Z AUTO 04022G28KT 10SM CLR 24/M12 A3005 RMK AO2 PK WND 05031/2009 SLP153 T02441117 53023
KINK 211953Z AUTO 03016G28KT 10SM CLR 26/M14 A3001 RMK AO2 PK WND 01033/1855 SLP137 T02611139
KINK 211853Z AUTO 03023G36KT 10SM CLR 26/M14 A2999 RMK AO2 PK WND 01036/1846 SLP129 T02611139
KINK 211753Z AUTO 01024KT 10SM CLR 26/M12 A2998 RMK AO2 PK WND 01029/1742 SLP120 T02611122 10261 20017 51010
KINK 211653Z AUTO 34016G22KT 10SM CLR 23/M12 A2997 RMK AO2 SLP121 T02331122
KINK 211553Z AUTO 34015KT 10SM CLR 21/M12 A2997 RMK AO2 SLP119 T02061122
KINK 211453Z AUTO 31008KT 10SM CLR 13/M06 A2995 RMK AO2 SLP121 T01331056 51022
KINK 211353Z AUTO 34005KT 10SM CLR 02/M02 A2993 RMK AO2 SLP127 T00171022
KINK 211253Z AUTO 30005KT 10SM CLR 02/M03 A2990 RMK AO2 SLP115 T00171028
KINK 211153Z AUTO 02004KT 10SM CLR 02/M03 A2987 RMK AO2 SLP101 T00221028 10100 20022 53004
KINK 211053Z AUTO 33005KT 10SM CLR 03/M03 A2985 RMK AO2 SLP087 T00331028
KINK 210953Z AUTO 03005KT 10SM CLR 03/M02 A2986 RMK AO2 SLP089 T00331022
KINK 210853Z AUTO 12004KT 10SM CLR 03/M03 A2986 RMK AO2 SLP089 T00331033 58012
KINK 210753Z AUTO 10007KT 10SM CLR 04/M03 A2988 RMK AO2 SLP097 T00441033
KINK 210653Z AUTO 09008KT 10SM CLR 06/M04 A2988 RMK AO2 SLP099 T00561039
KINK 210553Z AUTO 25008KT 10SM CLR 10/M04 A2990 RMK AO2 SLP102 T01001044 10161 20083 402331017 58001
KINK 210453Z AUTO 25010KT 10SM CLR 11/M04 A2991 RMK AO2 SLP107 T01111044
KINK 210353Z AUTO 21008KT 10SM CLR 12/M04 A2992 RMK AO2 SLP115 T01221044
KINK 210253Z AUTO 21008KT 10SM CLR 09/M04 A2990 RMK AO2 SLP114 T00941039 58001
KINK 210153Z AUTO 21005KT 10SM CLR 11/M03 A2991 RMK AO2 SLP122 T01061033
KINK 210053Z AUTO 21007KT 10SM CLR 13/M03 A2991 RMK AO2 SLP121 T01281033
KINK 202353Z AUTO 21007KT 10SM CLR 16/M04 A2990 RMK AO2 SLP113 T01611039 10233 20156 56010
KINK 202253Z AUTO 24008KT 10SM CLR 22/M07 A2992 RMK AO2 SLP110 T02221067
KINK 202153Z AUTO 23009KT 10SM CLR 23/M03 A2991 RMK AO2 SLP107 T02281033
KINK 202053Z AUTO 22007KT 10SM CLR 22/M03 A2994 RMK AO2 SLP115 T02171028 56033
KINK 201953Z AUTO 23009KT 10SM CLR 21/M03 A2996 RMK AO2 SLP124 T02061033
KINK 201853Z AUTO 25006KT 10SM CLR 18/M04 A3000 RMK AO2 SLP142 T01781039
KINK 201753Z AUTO 23007KT 10SM CLR 16/M04 A3004 RMK AO2 SLP158 T01561044 10161 21017 58014